createdAt,value
2019-03-06T00:05:48.049Z,5.00
2019-03-06T00:10:52.975Z,5.00
2019-03-06T00:15:58.251Z,5.00
2019-03-06T00:21:03.656Z,4.90
2019-03-06T00:26:08.863Z,4.90
2019-03-06T00:31:14.183Z,4.80
2019-03-06T00:36:20.474Z,4.80
2019-03-06T00:41:28.210Z,4.90
2019-03-06T00:46:33.328Z,4.80
2019-03-06T00:51:57.455Z,4.90
2019-03-06T00:57:02.747Z,4.90
2019-03-06T01:02:08.071Z,5.00
2019-03-06T01:07:13.186Z,4.90
2019-03-06T01:12:18.343Z,5.00
2019-03-06T01:17:23.641Z,5.00
2019-03-06T01:22:29.022Z,5.10
2019-03-06T01:27:34.394Z,5.10
2019-03-06T01:32:39.693Z,5.20
2019-03-06T01:37:46.668Z,5.20
2019-03-06T01:43:03.562Z,5.30
2019-03-06T01:48:08.463Z,5.30
2019-03-06T01:53:13.786Z,5.50
2019-03-06T01:58:18.674Z,5.50
2019-03-06T02:03:23.834Z,5.50
2019-03-06T02:08:29.542Z,5.50
2019-03-06T02:13:34.975Z,5.50
2019-03-06T02:18:40.532Z,5.60
2019-03-06T02:23:46.062Z,5.60
2019-03-06T02:28:51.208Z,5.60
2019-03-06T02:33:56.693Z,5.60
2019-03-06T02:39:01.991Z,5.60
2019-03-06T02:44:07.371Z,5.60
2019-03-06T02:49:13.214Z,5.60
2019-03-06T02:54:18.766Z,5.60
2019-03-06T02:59:27.822Z,5.60
2019-03-06T03:04:35.015Z,5.50
2019-03-06T03:09:39.931Z,5.50
2019-03-06T03:14:44.809Z,5.40
2019-03-06T03:19:49.884Z,5.40
2019-03-06T03:24:55.164Z,5.20
2019-03-06T03:30:00.556Z,5.20
2019-03-06T03:35:06.902Z,5.10
2019-03-06T03:40:14.563Z,5.10
2019-03-06T03:45:19.650Z,5.10
2019-03-06T03:50:24.767Z,5.10
2019-03-06T03:55:29.927Z,5.10
2019-03-06T04:00:35.116Z,5.10
2019-03-06T04:05:40.221Z,5.10
2019-03-06T04:10:45.727Z,5.10
2019-03-06T04:15:50.878Z,5.10
2019-03-06T04:20:55.991Z,5.10
2019-03-06T04:26:01.121Z,5.10
2019-03-06T04:31:06.461Z,5.20
2019-03-06T04:36:11.550Z,5.20
2019-03-06T04:41:16.821Z,5.10
2019-03-06T04:46:21.975Z,5.00
2019-03-06T04:51:27.137Z,5.00
2019-03-06T04:56:32.492Z,4.90
2019-03-06T05:01:37.431Z,5.00
2019-03-06T05:06:42.606Z,5.00
2019-03-06T05:11:47.773Z,5.00
2019-03-06T05:16:54.571Z,5.00
2019-03-06T05:21:59.670Z,5.10
2019-03-06T05:27:05.067Z,5.10
2019-03-06T05:32:13.098Z,5.00
2019-03-06T05:37:21.254Z,5.00
2019-03-06T05:42:26.777Z,5.00
2019-03-06T05:47:31.771Z,5.00
2019-03-06T05:52:38.212Z,4.90
2019-03-06T05:57:43.130Z,4.90
2019-03-06T06:02:48.332Z,4.90
2019-03-06T06:07:53.581Z,4.80
2019-03-06T06:12:59.116Z,4.80
2019-03-06T06:18:04.273Z,4.80
2019-03-06T06:23:11.118Z,4.90
2019-03-06T06:28:15.867Z,4.90
2019-03-06T06:33:20.655Z,5.00
2019-03-06T06:38:25.480Z,4.90
2019-03-06T06:43:31.013Z,4.90
2019-03-06T06:48:35.973Z,4.90
2019-03-06T06:53:44.041Z,4.90
2019-03-06T06:58:52.071Z,4.90
2019-03-06T07:04:03.047Z,4.90
2019-03-06T07:09:07.833Z,5.00
2019-03-06T07:14:14.378Z,5.00
2019-03-06T07:19:21.091Z,5.00
2019-03-06T07:24:27.832Z,5.00
2019-03-06T07:29:53.730Z,5.00
2019-03-06T07:35:03.659Z,5.10
2019-03-06T07:40:31.399Z,5.10
2019-03-06T07:45:38.261Z,5.10
2019-03-06T07:50:45.573Z,5.30
2019-03-06T07:55:52.562Z,5.30
2019-03-06T08:00:57.972Z,5.40
2019-03-06T08:06:03.123Z,5.50
2019-03-06T08:11:09.130Z,5.60
2019-03-06T08:16:15.870Z,5.60
2019-03-06T08:21:22.834Z,5.70
2019-03-06T08:26:28.006Z,5.70
2019-03-06T08:37:04.507Z,5.90
2019-03-06T08:42:10.072Z,5.90
2019-03-06T08:47:16.924Z,5.90
2019-03-06T08:52:23.560Z,5.90
2019-03-06T09:03:02.998Z,5.90
2019-03-06T09:08:10.388Z,6.00
2019-03-06T09:13:17.226Z,6.20
2019-03-06T09:18:24.060Z,6.50
2019-03-06T09:23:30.872Z,6.60
2019-03-06T09:28:37.643Z,6.60
2019-03-06T09:33:44.441Z,6.70
2019-03-06T09:38:51.233Z,6.70
2019-03-06T09:43:57.801Z,7.10
2019-03-06T09:49:11.318Z,7.50
2019-03-06T09:59:44.410Z,7.90
2019-03-06T10:04:51.214Z,8.20
2019-03-06T10:10:00.110Z,8.20
2019-03-06T10:15:26.883Z,8.40
2019-03-06T10:20:32.031Z,8.80
2019-03-06T10:25:37.190Z,9.20
2019-03-06T10:30:42.770Z,9.30
2019-03-06T10:35:48.093Z,9.50
2019-03-06T10:40:53.251Z,9.70
2019-03-06T10:45:58.486Z,10.10
2019-03-06T10:51:22.838Z,10.20
2019-03-06T10:56:28.404Z,10.20
2019-03-06T11:01:33.738Z,10.60
2019-03-06T11:06:38.898Z,10.60
2019-03-06T11:11:44.056Z,10.50
2019-03-06T11:16:49.286Z,10.50
2019-03-06T11:21:54.699Z,10.90
2019-03-06T11:27:00.046Z,11.30
2019-03-06T11:32:06.733Z,11.10
2019-03-06T11:37:12.000Z,11.20
2019-03-06T11:42:17.403Z,11.20
2019-03-06T11:47:23.531Z,11.10
2019-03-06T11:52:28.688Z,11.20
2019-03-06T11:57:33.500Z,11.50
2019-03-06T12:02:38.942Z,11.60
2019-03-06T12:07:44.260Z,11.70
2019-03-06T12:12:49.580Z,11.80
2019-03-06T12:17:54.376Z,11.90
2019-03-06T12:22:59.652Z,12.00
2019-03-06T12:28:05.377Z,12.10
2019-03-06T12:33:12.573Z,11.70
2019-03-06T12:38:17.821Z,11.20
2019-03-06T12:43:24.451Z,11.10
2019-03-06T12:48:29.641Z,10.80
2019-03-06T12:53:35.417Z,10.50
2019-03-06T12:58:47.428Z,10.70
2019-03-06T13:03:53.524Z,10.80
2019-03-06T13:08:59.859Z,10.80
2019-03-06T13:14:05.199Z,10.70
2019-03-06T13:19:10.327Z,10.70
2019-03-06T13:24:24.875Z,11.10
2019-03-06T13:29:29.858Z,11.10
2019-03-06T13:34:35.312Z,11.10
2019-03-06T13:39:40.407Z,11.00
2019-03-06T13:44:45.233Z,11.00
2019-03-06T13:49:50.271Z,10.90
2019-03-06T13:54:55.422Z,10.70
2019-03-06T14:00:00.408Z,10.50
2019-03-06T14:05:07.783Z,10.50
2019-03-06T14:10:15.904Z,10.80
2019-03-06T14:15:21.716Z,10.90
2019-03-06T14:20:27.107Z,10.90
2019-03-06T14:25:32.351Z,10.70
2019-03-06T14:30:39.313Z,10.60
2019-03-06T14:35:44.432Z,10.60
2019-03-06T14:40:49.858Z,10.50
2019-03-06T14:45:55.135Z,10.40
2019-03-06T14:51:01.013Z,10.40
2019-03-06T14:56:06.555Z,10.30
2019-03-06T15:01:11.700Z,10.20
2019-03-06T15:06:16.815Z,10.10
2019-03-06T15:11:21.940Z,10.10
2019-03-06T15:16:27.114Z,10.10
2019-03-06T15:21:32.157Z,10.00
2019-03-06T15:26:37.235Z,10.00
2019-03-06T15:31:42.527Z,9.90
2019-03-06T15:36:47.844Z,9.90
2019-03-06T15:42:00.144Z,9.80
2019-03-06T15:47:01.107Z,9.70
2019-03-06T15:52:08.012Z,9.60
2019-03-06T15:57:12.887Z,9.50
2019-03-06T16:02:18.103Z,9.30
2019-03-06T16:07:23.253Z,9.20
2019-03-06T16:12:28.410Z,9.10
2019-03-06T16:17:33.651Z,9.00
2019-03-06T16:22:39.334Z,8.70
2019-03-06T16:27:45.833Z,8.50
2019-03-06T16:32:51.075Z,8.30
2019-03-06T16:37:56.250Z,8.10
2019-03-06T16:43:01.395Z,7.90
2019-03-06T16:48:06.353Z,7.80
2019-03-06T16:53:12.305Z,7.60
2019-03-06T16:58:17.494Z,7.40
2019-03-06T17:03:22.437Z,7.30
2019-03-06T17:08:27.890Z,7.10
2019-03-06T17:13:33.213Z,7.00
2019-03-06T17:18:38.716Z,7.00
2019-03-06T17:23:43.852Z,6.90
2019-03-06T17:28:49.186Z,6.80
2019-03-06T17:33:54.103Z,6.70
2019-03-06T17:38:59.248Z,6.60
2019-03-06T17:44:04.874Z,6.60
2019-03-06T17:49:10.108Z,6.60
2019-03-06T17:54:15.339Z,6.60
2019-03-06T17:59:21.149Z,6.60
2019-03-06T18:04:26.466Z,6.70
2019-03-06T18:09:51.084Z,6.60
2019-03-06T18:15:16.459Z,6.60
2019-03-06T18:20:21.900Z,6.50
2019-03-06T18:25:27.394Z,6.50
2019-03-06T18:30:32.539Z,6.40
2019-03-06T18:35:38.407Z,6.40
2019-03-06T18:40:43.684Z,6.40
2019-03-06T18:45:49.234Z,6.40
2019-03-06T18:50:54.514Z,6.40
2019-03-06T18:56:21.080Z,6.50
2019-03-06T19:01:26.279Z,6.50
2019-03-06T19:06:31.360Z,6.40
2019-03-06T19:11:36.509Z,6.50
2019-03-06T19:16:41.673Z,6.50
2019-03-06T19:21:46.835Z,6.60
2019-03-06T19:26:51.748Z,6.50
2019-03-06T19:31:56.643Z,6.60
2019-03-06T19:37:01.939Z,6.60
2019-03-06T19:42:06.913Z,6.40
2019-03-06T19:47:12.398Z,6.30
2019-03-06T19:52:18.262Z,6.30
2019-03-06T19:57:23.451Z,6.30
2019-03-06T20:02:28.573Z,6.20
2019-03-06T20:07:33.797Z,6.20
2019-03-06T20:12:39.077Z,6.10
2019-03-06T20:17:44.239Z,6.20
2019-03-06T20:22:49.631Z,6.20
2019-03-06T20:28:15.773Z,6.10
2019-03-06T20:33:21.197Z,6.10
2019-03-06T20:38:25.985Z,6.10
2019-03-06T20:43:31.367Z,6.00
2019-03-06T20:48:36.920Z,6.00
2019-03-06T20:53:42.015Z,5.90
2019-03-06T20:58:47.207Z,5.90
2019-03-06T21:03:52.549Z,5.90
2019-03-06T21:08:57.704Z,5.80
2019-03-06T21:14:02.849Z,5.70
2019-03-06T21:19:07.901Z,5.70
2019-03-06T21:24:12.969Z,5.60
2019-03-06T21:29:18.621Z,5.50
2019-03-06T21:34:23.615Z,5.40
2019-03-06T21:39:29.764Z,5.50
2019-03-06T21:44:35.023Z,5.50
2019-03-06T21:49:40.494Z,5.50
2019-03-06T21:54:46.318Z,5.50
2019-03-06T21:59:51.580Z,5.40
2019-03-06T22:04:57.251Z,5.30
2019-03-06T22:10:02.326Z,5.30
2019-03-06T22:15:10.806Z,5.30
2019-03-06T22:20:35.219Z,5.30
2019-03-06T22:25:40.389Z,5.30
2019-03-06T22:30:45.751Z,5.30
2019-03-06T22:35:50.921Z,5.30
2019-03-06T22:40:56.068Z,5.40
2019-03-06T22:46:01.262Z,5.30
2019-03-06T22:51:07.019Z,5.20
2019-03-06T22:56:12.171Z,5.20
2019-03-06T23:01:20.231Z,5.10
2019-03-06T23:06:25.667Z,5.10
2019-03-06T23:11:50.034Z,5.00
2019-03-06T23:16:55.192Z,4.90
2019-03-06T23:22:00.048Z,4.90
2019-03-06T23:27:24.356Z,4.80
2019-03-06T23:32:29.699Z,4.80
2019-03-06T23:37:34.866Z,4.80
2019-03-06T23:42:40.030Z,4.90
2019-03-06T23:47:45.200Z,5.00
2019-03-06T23:52:52.023Z,5.10
2019-03-06T23:57:57.136Z,5.10
